KCRG/CRG METAR and TAF weather

Enter ICAO airport designator
Station Type Date Time Source
KCRG METAR 2019/10/16 19:53 UTC NOAA

KCRG 161953Z 28013KT 10SM SCT060 31/20 A2979 RMK AO2 SLP088 T03060200


Station Type Date Time Source
KCRG Decoded METAR 2019/10/16 19:53 UTC NOAA

JACKSONVILLE CRAIG MUN, FL, United States (KCRG) 30-20N 81-31W 13M
Oct 16, 2019 - 03:53 PM EDT / 2019.10.16 1953 UTC
Wind: from the W (280 degrees) at 15 MPH (13 KT):0
Visibility: 10 mile(s):0
Sky conditions: partly cloudy
Temperature: 87.1 F (30.6 C)
Dew Point: 68.0 F (20.0 C)
Relative Humidity: 53%
Pressure (altimeter): 29.79 in. Hg (1008 hPa)
ob: KCRG 161953Z 28013KT 10SM SCT060 31/20 A2979 RMK AO2 SLP088 T03060200
cycle: 20

Station Type Date Time Source
KCRG TAF 2019/10/16 18:22 UTC NOAA

TAF KCRG 161720Z 1618/1718 26013G20KT P6SM VCSH SCT030 BKN060 BKN120
FM170000 27007KT P6SM SCT250
FM170500 32007KT P6SM SKC

Example: see airport list